Time;durP1;ratioP1;P1;durP2;ratioP2;P2;SDS_P1;SDS_P2;PMS_P1;PMS_P2;Temp;Humidity;BMP_temperature;BMP_pressure;BME280_temperature;BME280_humidity;BME280_pressure;Samples;Min_cycle;Max_cycle;Signal;HPM_P1;HPM_P2
2022/05/31 00:02:40;;;;;;;10.28;5.40;;;;;;;;;;4346682;80;28568;-81
2022/05/31 00:08:41;;;;;;;7.58;5.80;;;;;;;;;;4379860;80;28518;-81
2022/05/31 00:14:43;;;;;;;9.33;6.20;;;;;;;;;;4385916;80;28557;-81
2022/05/31 00:20:44;;;;;;;9.75;5.90;;;;;;;;;;4330173;80;28506;-81
2022/05/31 00:26:46;;;;;;;10.10;5.92;;;;;;;;;;4320771;80;28560;-82
2022/05/31 00:32:50;;;;;;;8.38;4.83;;;;;;;;;;4414787;78;28515;-81
2022/05/31 00:38:51;;;;;;;9.15;5.40;;;;;;;;;;4337352;80;28556;-80
2022/05/31 00:44:52;;;;;;;8.90;6.03;;;;;;;;;;4392003;81;28488;-80
2022/05/31 00:50:59;;;;;;;8.90;5.72;;;;;;;;;;4320419;80;28561;-80
2022/05/31 00:57:01;;;;;;;7.45;5.42;;;;;;;;;;4347022;80;28582;-80
2022/05/31 01:03:04;;;;;;;8.90;5.35;;;;;;;;;;4328152;80;28507;-80
2022/05/31 01:09:06;;;;;;;8.60;5.05;;;;;;;;;;4337559;80;28600;-80
2022/05/31 01:15:14;;;;;;;7.80;5.62;;;;;;;;;;4347048;80;28560;-80
2022/05/31 01:21:34;;;;;;;10.68;6.42;;;;;;;;;;4423801;79;28529;-80
2022/05/31 01:27:47;;;;;;;9.88;6.90;;;;;;;;;;4406051;79;28591;-79
2022/05/31 01:34:04;;;;;;;10.80;6.15;;;;;;;;;;4358019;80;28515;-78
2022/05/31 01:40:09;;;;;;;7.90;5.60;;;;;;;;;;4338613;80;28521;-77
2022/05/31 01:46:15;;;;;;;14.83;5.97;;;;;;;;;;4320092;80;28534;-77
2022/05/31 01:52:17;;;;;;;9.40;5.57;;;;;;;;;;4340326;80;28524;-77
2022/05/31 01:58:22;;;;;;;13.08;6.90;;;;;;;;;;4309961;80;35619;-77
2022/05/31 02:04:23;;;;;;;11.50;7.15;;;;;;;;;;4296109;80;28523;-78
2022/05/31 02:10:25;;;;;;;11.20;7.22;;;;;;;;;;4369388;79;28518;-78
2022/05/31 02:16:27;;;;;;;10.88;6.70;;;;;;;;;;4429425;78;28598;-78
2022/05/31 02:22:47;;;;;;;8.80;6.22;;;;;;;;;;4332458;80;28513;-78
2022/05/31 02:28:49;;;;;;;10.95;7.17;;;;;;;;;;4332860;80;28492;-79
2022/05/31 02:34:51;;;;;;;15.98;8.20;;;;;;;;;;4380139;80;28536;-78
2022/05/31 02:40:53;;;;;;;11.25;7.17;;;;;;;;;;4378045;80;28545;-78
2022/05/31 02:46:56;;;;;;;11.57;7.97;;;;;;;;;;4380738;80;28551;-78
2022/05/31 02:52:57;;;;;;;11.85;7.37;;;;;;;;;;4410325;80;28577;-77
2022/05/31 02:58:58;;;;;;;11.83;7.30;;;;;;;;;;4435144;80;28512;-78
2022/05/31 03:05:17;;;;;;;10.98;7.22;;;;;;;;;;4300506;79;28508;-80
2022/05/31 03:11:30;;;;;;;13.28;8.70;;;;;;;;;;4385029;80;28478;-80
2022/05/31 03:17:38;;;;;;;14.60;8.75;;;;;;;;;;4363865;80;28524;-81
2022/05/31 03:23:45;;;;;;;15.20;8.90;;;;;;;;;;4356114;80;28538;-82
2022/05/31 03:29:48;;;;;;;14.13;8.10;;;;;;;;;;4375463;80;28531;-79
2022/05/31 03:35:49;;;;;;;11.63;7.70;;;;;;;;;;4357440;80;28472;-80
2022/05/31 03:41:52;;;;;;;11.68;7.60;;;;;;;;;;4316812;80;28500;-78
2022/05/31 03:47:54;;;;;;;14.63;8.03;;;;;;;;;;4278123;81;28534;-79
2022/05/31 03:54:03;;;;;;;13.25;8.95;;;;;;;;;;4373311;81;28964;-79
2022/05/31 04:00:11;;;;;;;12.58;8.68;;;;;;;;;;4338030;80;28548;-78
2022/05/31 04:06:26;;;;;;;15.60;8.95;;;;;;;;;;4313732;80;28583;-78
2022/05/31 04:12:27;;;;;;;13.70;8.53;;;;;;;;;;4322026;80;28527;-78
2022/05/31 04:18:47;;;;;;;10.95;7.70;;;;;;;;;;4359139;80;28548;-80
2022/05/31 04:24:53;;;;;;;12.75;7.97;;;;;;;;;;4447975;78;28495;-81
2022/05/31 04:31:11;;;;;;;15.00;9.48;;;;;;;;;;4254214;82;28546;-81
2022/05/31 04:37:28;;;;;;;14.18;9.60;;;;;;;;;;4312490;78;28467;-81
2022/05/31 04:43:40;;;;;;;16.55;10.43;;;;;;;;;;4383829;78;28533;-81
2022/05/31 04:49:46;;;;;;;17.03;10.10;;;;;;;;;;4394345;78;28479;-80
2022/05/31 04:55:47;;;;;;;16.07;10.23;;;;;;;;;;4337128;80;28471;-81
2022/05/31 05:01:48;;;;;;;16.00;9.38;;;;;;;;;;4333685;81;28507;-81
2022/05/31 05:07:51;;;;;;;14.85;8.80;;;;;;;;;;4320995;80;28517;-76
2022/05/31 05:13:56;;;;;;;13.50;7.95;;;;;;;;;;4320313;81;28554;-77
2022/05/31 05:20:01;;;;;;;12.68;8.90;;;;;;;;;;4265388;80;28517;-80
2022/05/31 05:26:04;;;;;;;12.23;8.43;;;;;;;;;;4333056;80;28532;-80
2022/05/31 05:32:08;;;;;;;15.75;9.93;;;;;;;;;;4310194;80;28561;-77
2022/05/31 05:38:14;;;;;;;14.35;8.98;;;;;;;;;;4330385;80;28545;-76
2022/05/31 05:44:35;;;;;;;17.48;9.35;;;;;;;;;;4341411;80;28543;-76
2022/05/31 05:50:37;;;;;;;15.50;9.35;;;;;;;;;;4350952;80;28509;-76
2022/05/31 05:56:43;;;;;;;14.05;8.80;;;;;;;;;;4326609;80;28522;-76
2022/05/31 06:03:09;;;;;;;16.42;9.13;;;;;;;;;;4346221;81;28564;-76
2022/05/31 06:09:21;;;;;;;18.25;9.65;;;;;;;;;;4319736;81;28474;-75
2022/05/31 06:15:26;;;;;;;13.93;8.70;;;;;;;;;;4365023;80;28448;-75
2022/05/31 06:21:28;;;;;;;15.45;9.48;;;;;;;;;;4346451;80;28562;-74
2022/05/31 06:27:31;;;;;;;15.32;9.75;;;;;;;;;;4312180;80;28535;-76
2022/05/31 06:33:32;;;;;;;15.18;9.15;;;;;;;;;;4370799;80;28515;-75
2022/05/31 06:39:39;;;;;;;16.55;8.48;;;;;;;;;;4352457;80;28538;-76
2022/05/31 06:45:42;;;;;;;11.73;7.97;;;;;;;;;;4447663;79;28509;-76
2022/05/31 06:58:29;;;;;;;15.75;9.15;;;;;;;;;;4421646;79;28495;-76
2022/05/31 07:04:32;;;;;;;13.95;8.80;;;;;;;;;;4404801;79;28461;-76
2022/05/31 07:10:34;;;;;;;14.93;8.13;;;;;;;;;;4405431;79;28475;-76
2022/05/31 07:16:54;;;;;;;13.78;7.95;;;;;;;;;;4391868;78;28540;-76
2022/05/31 07:23:13;;;;;;;9.73;7.53;;;;;;;;;;4326806;81;28562;-76
2022/05/31 07:29:18;;;;;;;10.57;6.43;;;;;;;;;;4321165;80;28589;-76
2022/05/31 07:35:20;;;;;;;9.88;6.17;;;;;;;;;;4336711;80;28462;-75
2022/05/31 07:41:21;;;;;;;12.35;6.15;;;;;;;;;;4404772;80;28516;-76
2022/05/31 07:47:24;;;;;;;12.30;7.37;;;;;;;;;;4324922;80;28491;-76
2022/05/31 07:53:25;;;;;;;11.97;7.50;;;;;;;;;;4315580;81;28456;-76
2022/05/31 07:59:46;;;;;;;12.45;6.25;;;;;;;;;;4302982;81;28572;-75
2022/05/31 08:06:13;;;;;;;8.33;5.80;;;;;;;;;;4368871;80;28523;-75
2022/05/31 08:12:14;;;;;;;7.12;6.03;;;;;;;;;;4380491;80;28521;-75
2022/05/31 08:18:15;;;;;;;9.03;5.95;;;;;;;;;;4362822;80;28485;-76
2022/05/31 08:24:16;;;;;;;7.35;5.70;;;;;;;;;;4407560;79;28511;-75
2022/05/31 08:30:17;;;;;;;7.30;5.37;;;;;;;;;;4414841;79;28464;-76
2022/05/31 08:36:19;;;;;;;8.80;5.33;;;;;;;;;;4346949;80;28458;-76
2022/05/31 08:42:23;;;;;;;6.45;4.58;;;;;;;;;;4352332;80;28510;-75
2022/05/31 08:48:39;;;;;;;8.75;5.47;;;;;;;;;;4371462;80;28478;-76
2022/05/31 09:01:05;;;;;;;7.78;5.17;;;;;;;;;;4330965;80;28557;-75
2022/05/31 09:07:18;;;;;;;6.60;4.42;;;;;;;;;;4427486;79;28524;-75
2022/05/31 09:13:35;;;;;;;6.62;4.33;;;;;;;;;;4424452;79;28969;-76
2022/05/31 09:19:40;;;;;;;7.28;4.40;;;;;;;;;;4396051;80;28505;-76
2022/05/31 09:25:41;;;;;;;6.00;3.67;;;;;;;;;;4429167;79;28546;-76
2022/05/31 09:31:46;;;;;;;6.87;3.45;;;;;;;;;;4319798;80;28496;-76
2022/05/31 09:37:57;;;;;;;5.28;3.22;;;;;;;;;;4364872;80;28530;-76
2022/05/31 09:44:15;;;;;;;4.72;2.92;;;;;;;;;;4327936;81;28487;-75
2022/05/31 09:50:26;;;;;;;3.33;2.70;;;;;;;;;;4342167;81;28440;-75
2022/05/31 10:03:04;;;;;;;4.15;2.67;;;;;;;;;;4339074;80;28470;-75
2022/05/31 10:09:15;;;;;;;2.95;2.30;;;;;;;;;;4302275;80;28475;-76
2022/05/31 10:15:38;;;;;;;3.45;2.33;;;;;;;;;;4342720;80;28485;-75
2022/05/31 10:21:43;;;;;;;3.85;2.35;;;;;;;;;;4428070;80;28519;-75
2022/05/31 10:27:44;;;;;;;4.35;2.12;;;;;;;;;;4367011;80;28456;-75
2022/05/31 10:33:55;;;;;;;3.60;2.45;;;;;;;;;;4350927;80;28483;-75
2022/05/31 10:40:03;;;;;;;5.60;2.50;;;;;;;;;;4456270;78;28457;-75
2022/05/31 10:46:14;;;;;;;3.52;2.40;;;;;;;;;;4499079;78;28493;-76
2022/05/31 10:52:52;;;;;;;2.83;2.05;;;;;;;;;;4448906;78;28500;-75
2022/05/31 10:59:00;;;;;;;3.05;2.40;;;;;;;;;;4428004;79;28583;-75
2022/05/31 11:05:08;;;;;;;2.77;2.37;;;;;;;;;;4445920;79;28508;-76
2022/05/31 11:11:28;;;;;;;3.87;2.35;;;;;;;;;;4445424;79;28527;-76
2022/05/31 11:17:57;;;;;;;4.55;2.55;;;;;;;;;;4343725;80;28493;-76
2022/05/31 11:24:17;;;;;;;3.20;2.55;;;;;;;;;;4442977;79;28490;-77
2022/05/31 11:30:34;;;;;;;5.03;2.65;;;;;;;;;;4433846;78;28509;-75
2022/05/31 11:36:59;;;;;;;2.77;2.40;;;;;;;;;;4435437;80;28525;-75
2022/05/31 11:43:10;;;;;;;2.80;2.45;;;;;;;;;;4464997;78;28494;-75
2022/05/31 11:49:17;;;;;;;3.27;2.33;;;;;;;;;;4480462;78;28537;-76
2022/05/31 11:55:30;;;;;;;3.27;2.58;;;;;;;;;;4405031;78;28515;-75
2022/05/31 12:01:38;;;;;;;6.00;2.17;;;;;;;;;;4415421;78;28534;-76
2022/05/31 12:07:43;;;;;;;2.70;2.10;;;;;;;;;;4429560;78;28487;-75
2022/05/31 12:13:46;;;;;;;3.98;2.45;;;;;;;;;;4447749;78;29004;-76
2022/05/31 12:20:06;;;;;;;2.30;2.10;;;;;;;;;;4419187;78;28547;-76
2022/05/31 12:26:17;;;;;;;2.40;1.85;;;;;;;;;;4412149;79;28515;-77
2022/05/31 12:32:33;;;;;;;3.65;2.20;;;;;;;;;;4329410;80;28511;-74
2022/05/31 12:39:09;;;;;;;4.22;2.30;;;;;;;;;;4433207;79;28504;-76
2022/05/31 12:45:35;;;;;;;2.93;1.83;;;;;;;;;;4357479;80;28503;-76
2022/05/31 12:51:36;;;;;;;2.90;2.00;;;;;;;;;;4315649;80;28496;-75
2022/05/31 13:04:10;;;;;;;3.00;2.07;;;;;;;;;;4408850;80;28480;-76
2022/05/31 13:10:33;;;;;;;1.82;1.62;;;;;;;;;;4398696;79;28495;-75
2022/05/31 13:23:10;;;;;;;2.17;1.90;;;;;;;;;;4345730;80;28532;-77
2022/05/31 13:29:13;;;;;;;4.15;2.10;;;;;;;;;;4340904;80;28523;-76
2022/05/31 13:35:24;;;;;;;5.10;2.25;;;;;;;;;;4352660;80;28986;-76
2022/05/31 13:41:26;;;;;;;3.08;2.10;;;;;;;;;;4353321;80;28496;-76
2022/05/31 13:47:28;;;;;;;2.70;2.08;;;;;;;;;;4347508;80;28481;-76
2022/05/31 13:53:43;;;;;;;4.28;1.98;;;;;;;;;;4357528;80;28489;-77
2022/05/31 13:59:48;;;;;;;6.13;2.30;;;;;;;;;;4348418;81;28523;-76
2022/05/31 14:05:56;;;;;;;3.45;2.02;;;;;;;;;;4366493;80;28444;-76
2022/05/31 14:12:00;;;;;;;2.58;1.65;;;;;;;;;;4353717;80;28457;-76
2022/05/31 14:18:11;;;;;;;2.33;1.87;;;;;;;;;;4370140;80;28553;-76
2022/05/31 14:24:14;;;;;;;3.62;1.90;;;;;;;;;;4422737;78;28516;-76
2022/05/31 14:30:31;;;;;;;3.58;1.87;;;;;;;;;;4463436;78;28529;-76
2022/05/31 14:36:35;;;;;;;3.65;1.85;;;;;;;;;;4462802;78;28527;-75
2022/05/31 14:42:40;;;;;;;2.02;1.70;;;;;;;;;;4484770;78;28496;-76
2022/05/31 14:48:45;;;;;;;2.87;2.05;;;;;;;;;;4395883;80;28593;-76
2022/05/31 14:54:47;;;;;;;5.87;2.15;;;;;;;;;;4405803;78;28538;-76
2022/05/31 15:00:51;;;;;;;3.92;2.15;;;;;;;;;;4418657;78;28519;-76
2022/05/31 15:07:05;;;;;;;4.55;2.00;;;;;;;;;;4461489;78;28481;-75
2022/05/31 15:19:38;;;;;;;2.45;2.00;;;;;;;;;;4392679;78;28566;-77
2022/05/31 15:25:41;;;;;;;2.42;1.90;;;;;;;;;;4421063;78;28531;-81
2022/05/31 15:31:42;;;;;;;3.33;2.25;;;;;;;;;;4394446;78;28519;-77
2022/05/31 15:37:44;;;;;;;3.25;1.98;;;;;;;;;;4394432;78;28544;-78
2022/05/31 15:43:55;;;;;;;2.77;2.02;;;;;;;;;;4422263;78;28479;-76
2022/05/31 15:49:59;;;;;;;2.27;1.77;;;;;;;;;;4388992;80;28500;-76
2022/05/31 15:56:01;;;;;;;4.83;1.80;;;;;;;;;;4318999;80;28496;-78
2022/05/31 16:02:04;;;;;;;2.12;1.90;;;;;;;;;;4336428;80;28627;-75
2022/05/31 16:08:06;;;;;;;2.62;1.70;;;;;;;;;;4322313;80;28462;-77
2022/05/31 16:14:11;;;;;;;2.80;1.87;;;;;;;;;;4305726;80;28473;-77
2022/05/31 16:20:13;;;;;;;5.25;1.87;;;;;;;;;;4427893;78;28515;-76
2022/05/31 16:26:16;;;;;;;2.52;1.98;;;;;;;;;;4420612;78;28546;-77
2022/05/31 16:32:18;;;;;;;4.40;2.27;;;;;;;;;;4391008;79;28562;-77
2022/05/31 16:44:39;;;;;;;3.08;1.95;;;;;;;;;;4398224;78;28504;-76
2022/05/31 16:50:40;;;;;;;3.10;1.85;;;;;;;;;;4417810;78;28535;-75
2022/05/31 16:56:48;;;;;;;3.55;2.02;;;;;;;;;;4399367;80;28492;-75
2022/05/31 17:02:49;;;;;;;3.37;1.92;;;;;;;;;;4408415;78;28482;-76
2022/05/31 17:15:12;;;;;;;2.42;2.00;;;;;;;;;;4389261;78;28478;-77
2022/05/31 17:21:14;;;;;;;5.25;1.85;;;;;;;;;;4412675;78;28496;-75
2022/05/31 17:27:15;;;;;;;3.22;2.00;;;;;;;;;;4389469;78;28563;-77
2022/05/31 17:33:22;;;;;;;4.33;2.10;;;;;;;;;;4393016;78;28549;-78
2022/05/31 17:39:23;;;;;;;4.97;2.30;;;;;;;;;;4392202;78;28553;-76
2022/05/31 17:45:24;;;;;;;2.95;1.90;;;;;;;;;;4395005;78;28523;-76
2022/05/31 17:51:31;;;;;;;4.22;2.17;;;;;;;;;;4410191;78;28513;-76
2022/05/31 17:57:34;;;;;;;6.92;2.27;;;;;;;;;;4382994;78;28641;-77
2022/05/31 18:03:35;;;;;;;3.02;1.95;;;;;;;;;;4385673;78;28523;-76
2022/05/31 18:09:40;;;;;;;5.45;2.20;;;;;;;;;;4414340;78;28509;-76
2022/05/31 18:15:43;;;;;;;4.58;2.05;;;;;;;;;;4399980;80;28551;-77
2022/05/31 18:21:45;;;;;;;4.87;1.80;;;;;;;;;;4441408;78;28571;-76
2022/05/31 18:27:46;;;;;;;2.85;2.05;;;;;;;;;;4435902;78;28502;-77
2022/05/31 18:33:48;;;;;;;4.22;2.30;;;;;;;;;;4429720;79;28502;-75
2022/05/31 18:45:57;;;;;;;5.50;3.40;;;;;;;;;;4432084;78;28519;-79
2022/05/31 18:51:57;;;;;;;8.17;2.73;;;;;;;;;;4440899;78;28610;-79
2022/05/31 18:58:02;;;;;;;4.80;2.83;;;;;;;;;;4452942;78;28530;-83
2022/05/31 19:04:03;;;;;;;5.22;2.77;;;;;;;;;;4411733;78;28536;-84
2022/05/31 19:10:08;;;;;;;5.08;2.77;;;;;;;;;;4412162;78;28503;-78
2022/05/31 19:16:11;;;;;;;4.97;2.80;;;;;;;;;;4421871;78;28540;-82
2022/05/31 19:22:12;;;;;;;4.67;2.75;;;;;;;;;;4379601;78;28560;-82
2022/05/31 19:28:13;;;;;;;4.40;2.90;;;;;;;;;;4333659;80;28506;-82
2022/05/31 19:34:27;;;;;;;4.45;2.90;;;;;;;;;;4335894;80;28564;-82
2022/05/31 19:40:28;;;;;;;6.17;3.33;;;;;;;;;;4292544;80;28517;-83
2022/05/31 19:46:29;;;;;;;6.62;3.00;;;;;;;;;;4342021;80;28469;-83
2022/05/31 19:52:33;;;;;;;7.92;3.65;;;;;;;;;;4320437;80;28503;-81
2022/05/31 19:58:36;;;;;;;4.97;3.30;;;;;;;;;;4367199;80;28450;-81
2022/05/31 20:04:37;;;;;;;5.60;3.10;;;;;;;;;;4365419;81;28464;-81
2022/05/31 20:10:40;;;;;;;7.92;3.52;;;;;;;;;;4378816;81;28531;-82
2022/05/31 20:16:41;;;;;;;5.35;3.40;;;;;;;;;;4355685;81;28476;-82
2022/05/31 20:22:45;;;;;;;4.75;3.42;;;;;;;;;;4377340;78;28603;-82
2022/05/31 20:28:46;;;;;;;6.90;4.35;;;;;;;;;;4418581;78;28500;-81
2022/05/31 20:34:47;;;;;;;5.85;3.42;;;;;;;;;;4414976;78;28468;-82
2022/05/31 20:40:49;;;;;;;7.72;3.33;;;;;;;;;;4388099;79;28550;-80
2022/05/31 20:46:50;;;;;;;7.30;4.17;;;;;;;;;;4417555;80;28468;-80
2022/05/31 20:52:52;;;;;;;6.90;3.80;;;;;;;;;;4420684;80;28489;-80
2022/05/31 20:58:55;;;;;;;5.62;3.83;;;;;;;;;;4417218;80;28517;-80
2022/05/31 21:04:56;;;;;;;7.03;3.65;;;;;;;;;;4381754;80;28567;-79
2022/05/31 21:10:59;;;;;;;5.28;3.77;;;;;;;;;;4414933;78;28458;-80
2022/05/31 21:17:00;;;;;;;5.17;3.80;;;;;;;;;;4354894;80;28520;-80
2022/05/31 21:23:02;;;;;;;5.35;3.72;;;;;;;;;;4494893;78;28551;-81
2022/05/31 21:29:13;;;;;;;6.40;4.00;;;;;;;;;;4416700;78;28511;-80
2022/05/31 21:35:15;;;;;;;5.72;3.42;;;;;;;;;;4431796;80;28536;-81
2022/05/31 21:41:16;;;;;;;6.33;3.77;;;;;;;;;;4416395;80;28487;-80
2022/05/31 21:47:17;;;;;;;6.03;3.80;;;;;;;;;;4444687;80;28517;-80
2022/05/31 21:53:25;;;;;;;5.85;3.72;;;;;;;;;;4504281;78;28495;-79
2022/05/31 21:59:29;;;;;;;7.90;3.72;;;;;;;;;;4407494;80;28510;-79
2022/05/31 22:05:31;;;;;;;6.95;4.20;;;;;;;;;;4385673;81;28549;-79
2022/05/31 22:11:33;;;;;;;9.28;4.42;;;;;;;;;;4386675;80;28523;-79
2022/05/31 22:17:34;;;;;;;6.72;5.05;;;;;;;;;;4417388;80;28497;-77
2022/05/31 22:23:36;;;;;;;10.50;4.83;;;;;;;;;;4454998;80;28493;-77
2022/05/31 22:29:37;;;;;;;9.00;4.55;;;;;;;;;;4448623;80;28520;-76
2022/05/31 22:35:43;;;;;;;6.28;3.85;;;;;;;;;;4404640;80;28501;-77
2022/05/31 22:41:44;;;;;;;6.50;4.00;;;;;;;;;;4447966;80;28502;-77
2022/05/31 22:47:46;;;;;;;7.78;4.72;;;;;;;;;;4387202;80;28529;-80
2022/05/31 22:53:48;;;;;;;8.53;4.90;;;;;;;;;;4391150;81;28564;-78
2022/05/31 22:59:49;;;;;;;6.65;4.85;;;;;;;;;;4398408;80;28505;-81
2022/05/31 23:05:51;;;;;;;7.47;4.80;;;;;;;;;;4430230;80;28476;-81
2022/05/31 23:11:52;;;;;;;7.95;4.70;;;;;;;;;;4374105;81;28513;-80
2022/05/31 23:17:55;;;;;;;9.83;4.65;;;;;;;;;;4408054;78;28511;-79
2022/05/31 23:23:59;;;;;;;8.78;4.62;;;;;;;;;;4372120;81;28527;-79
2022/05/31 23:30:02;;;;;;;7.30;4.83;;;;;;;;;;4423332;80;28505;-79
2022/05/31 23:36:05;;;;;;;9.70;5.42;;;;;;;;;;4427188;80;28508;-79
2022/05/31 23:42:06;;;;;;;10.30;5.22;;;;;;;;;;4370829;81;28492;-79
2022/05/31 23:48:09;;;;;;;7.85;5.17;;;;;;;;;;4461403;78;28500;-79
2022/05/31 23:54:10;;;;;;;8.15;4.80;;;;;;;;;;4446006;80;28737;-80
